createdAt,value
2023-04-09T00:01:51.329Z,10.06
2023-04-09T00:04:19.498Z,9.84
2023-04-09T00:06:47.857Z,9.81
2023-04-09T00:09:16.263Z,9.80
2023-04-09T00:11:44.614Z,9.66
2023-04-09T00:14:13.988Z,9.70
2023-04-09T00:16:43.982Z,9.63
2023-04-09T00:19:13.019Z,9.53
2023-04-09T00:21:41.373Z,9.58
2023-04-09T00:24:09.755Z,9.54
2023-04-09T00:26:40.408Z,9.46
2023-04-09T00:29:09.685Z,9.55
2023-04-09T00:31:39.716Z,9.62
2023-04-09T00:34:07.686Z,9.53
2023-04-09T00:36:35.795Z,9.70
2023-04-09T00:39:05.998Z,9.71
2023-04-09T00:41:34.600Z,9.82
2023-04-09T00:44:05.657Z,10.01
2023-04-09T00:46:35.138Z,9.94
2023-04-09T00:49:05.755Z,9.88
2023-04-09T00:51:34.722Z,9.91
2023-04-09T00:54:02.896Z,9.87
2023-04-09T00:56:31.528Z,9.85
2023-04-09T00:59:00.268Z,9.87
2023-04-09T01:01:28.328Z,9.85
2023-04-09T01:03:56.745Z,9.96
2023-04-09T01:06:34.016Z,10.02
2023-04-09T01:09:07.150Z,9.91
2023-04-09T01:11:43.714Z,9.78
2023-04-09T01:14:21.273Z,9.85
2023-04-09T01:16:57.093Z,9.91
2023-04-09T01:19:42.588Z,9.99
2023-04-09T01:22:24.453Z,10.09
2023-04-09T01:25:10.821Z,9.90
2023-04-09T01:27:48.615Z,9.73
2023-04-09T01:30:20.524Z,9.79
2023-04-09T01:32:49.366Z,9.87
2023-04-09T01:35:17.867Z,9.95
2023-04-09T01:37:46.128Z,9.97
2023-04-09T01:40:14.622Z,10.02
2023-04-09T01:42:42.964Z,10.04
2023-04-09T01:45:13.434Z,10.05
2023-04-09T01:47:43.258Z,10.03
2023-04-09T01:50:12.206Z,10.03
2023-04-09T01:52:40.489Z,10.15
2023-04-09T01:55:09.672Z,10.12
2023-04-09T01:57:37.860Z,10.12
2023-04-09T02:00:09.642Z,10.12
2023-04-09T02:02:43.940Z,10.09
2023-04-09T02:05:19.555Z,10.06
2023-04-09T02:07:49.862Z,10.15
2023-04-09T02:10:21.736Z,10.09
2023-04-09T02:12:52.769Z,9.99
2023-04-09T02:15:22.831Z,10.08
2023-04-09T02:17:51.489Z,10.08
2023-04-09T02:20:22.067Z,10.00
2023-04-09T02:22:50.326Z,10.03
2023-04-09T02:25:18.393Z,10.16
2023-04-09T02:27:46.495Z,10.08
2023-04-09T02:30:14.647Z,10.05
2023-04-09T02:32:42.826Z,10.12
2023-04-09T02:35:11.726Z,10.14
2023-04-09T02:37:41.566Z,10.17
2023-04-09T02:40:11.114Z,10.23
2023-04-09T02:42:39.147Z,10.09
2023-04-09T02:45:08.599Z,10.15
2023-04-09T02:47:36.698Z,10.02
2023-04-09T02:50:05.065Z,10.06
2023-04-09T02:52:33.147Z,9.86
2023-04-09T02:55:02.550Z,9.85
2023-04-09T02:57:30.617Z,9.85
2023-04-09T02:59:58.659Z,9.76
2023-04-09T03:02:26.828Z,9.63
2023-04-09T03:04:54.972Z,9.60
2023-04-09T03:07:23.904Z,9.61
2023-04-09T03:09:51.869Z,9.53
2023-04-09T03:12:21.366Z,9.56
2023-04-09T03:14:49.585Z,9.59
2023-04-09T03:17:17.544Z,9.59
2023-04-09T03:19:45.762Z,9.74
2023-04-09T03:22:13.904Z,9.74
2023-04-09T03:24:41.887Z,9.80
2023-04-09T03:27:09.917Z,9.87
2023-04-09T03:29:39.610Z,9.67
2023-04-09T03:32:07.806Z,9.57
2023-04-09T03:34:35.901Z,9.63
2023-04-09T03:37:03.945Z,9.78
2023-04-09T03:39:32.109Z,9.82
2023-04-09T03:42:01.924Z,9.74
2023-04-09T03:44:30.366Z,9.86
2023-04-09T03:46:59.937Z,9.76
2023-04-09T03:49:28.002Z,9.85
2023-04-09T03:51:56.121Z,9.84
2023-04-09T03:54:24.125Z,9.93
2023-04-09T03:56:52.182Z,9.77
2023-04-09T03:59:20.368Z,9.75
2023-04-09T04:01:48.449Z,9.50
2023-04-09T04:04:19.386Z,9.43
2023-04-09T04:06:48.579Z,9.53
2023-04-09T04:09:16.997Z,9.68
2023-04-09T04:11:45.157Z,9.73
2023-04-09T04:14:13.318Z,9.62
2023-04-09T04:16:42.427Z,9.69
2023-04-09T04:19:10.990Z,9.83
2023-04-09T04:21:40.320Z,9.89
2023-04-09T04:24:08.433Z,9.76
2023-04-09T04:26:36.818Z,9.78
2023-04-09T04:29:04.901Z,9.74
2023-04-09T04:31:33.054Z,9.82
2023-04-09T04:34:01.149Z,9.69
2023-04-09T04:36:29.225Z,9.75
2023-04-09T04:38:58.601Z,9.62
2023-04-09T04:41:26.950Z,9.68
2023-04-09T04:43:55.029Z,9.73
2023-04-09T04:46:23.200Z,9.59
2023-04-09T04:48:51.559Z,9.45
2023-04-09T04:51:19.779Z,9.55
2023-04-09T04:53:48.059Z,9.48
2023-04-09T04:56:17.888Z,9.54
2023-04-09T04:58:47.463Z,9.66
2023-04-09T05:01:19.006Z,9.76
2023-04-09T05:03:47.353Z,9.80
2023-04-09T05:06:15.516Z,9.91
2023-04-09T05:08:43.580Z,9.91
2023-04-09T05:11:22.317Z,9.74
2023-04-09T05:13:50.380Z,9.78
2023-04-09T05:16:18.963Z,9.86
2023-04-09T05:18:47.526Z,9.92
2023-04-09T05:21:15.461Z,10.06
2023-04-09T05:23:44.022Z,10.14
2023-04-09T05:26:12.180Z,10.19
2023-04-09T05:28:41.638Z,10.23
2023-04-09T05:31:13.371Z,10.29
2023-04-09T05:33:42.102Z,10.32
2023-04-09T05:36:10.312Z,10.33
2023-04-09T05:38:38.247Z,10.29
2023-04-09T05:41:06.350Z,10.25
2023-04-09T05:43:34.397Z,10.29
2023-04-09T05:46:04.732Z,10.33
2023-04-09T05:48:32.970Z,10.31
2023-04-09T05:51:01.606Z,10.33
2023-04-09T05:53:29.666Z,10.13
2023-04-09T05:55:57.628Z,10.16
2023-04-09T05:58:25.609Z,10.19
2023-04-09T06:00:53.681Z,10.09
2023-04-09T06:03:23.066Z,10.02
2023-04-09T06:05:51.216Z,10.05
2023-04-09T06:08:19.730Z,10.01
2023-04-09T06:10:47.988Z,9.99
2023-04-09T06:13:16.183Z,9.99
2023-04-09T06:15:44.314Z,10.00
2023-04-09T06:18:12.280Z,10.11
2023-04-09T06:20:41.715Z,10.15
2023-04-09T06:23:09.688Z,10.15
2023-04-09T06:25:37.744Z,9.95
2023-04-09T06:28:06.077Z,9.92
2023-04-09T06:30:35.940Z,9.93
2023-04-09T06:33:04.435Z,9.95
2023-04-09T06:35:32.682Z,10.12
2023-04-09T06:38:02.704Z,10.27
2023-04-09T06:40:31.324Z,10.41
2023-04-09T06:42:59.285Z,10.33
2023-04-09T06:45:27.652Z,10.27
2023-04-09T06:47:56.975Z,10.36
2023-04-09T06:50:25.005Z,10.40
2023-04-09T06:52:53.717Z,10.55
2023-04-09T06:55:23.106Z,10.64
2023-04-09T06:57:51.031Z,10.56
2023-04-09T07:00:19.425Z,10.44
2023-04-09T07:02:47.678Z,10.39
2023-04-09T07:05:15.722Z,10.36
2023-04-09T07:07:44.125Z,10.44
2023-04-09T07:10:12.413Z,10.57
2023-04-09T07:12:41.846Z,10.62
2023-04-09T07:15:10.361Z,10.37
2023-04-09T07:17:38.584Z,10.35
2023-04-09T07:20:07.562Z,10.49
2023-04-09T07:22:36.303Z,10.59
2023-04-09T07:25:04.264Z,10.73
2023-04-09T07:27:32.575Z,10.74
2023-04-09T07:30:03.268Z,10.64
2023-04-09T07:32:31.588Z,10.81
2023-04-09T07:34:59.771Z,10.81
2023-04-09T07:37:28.202Z,10.69
2023-04-09T07:39:56.620Z,10.70
2023-04-09T07:42:24.862Z,10.88
2023-04-09T07:44:52.829Z,10.84
2023-04-09T07:47:23.196Z,10.85
2023-04-09T07:49:51.442Z,10.91
2023-04-09T07:52:20.258Z,11.11
2023-04-09T07:54:48.274Z,11.16
2023-04-09T07:57:16.463Z,11.24
2023-04-09T07:59:44.685Z,11.33
2023-04-09T08:02:15.032Z,11.30
2023-04-09T08:04:45.035Z,11.67
2023-04-09T08:07:14.972Z,11.70
2023-04-09T08:09:43.025Z,11.65
2023-04-09T08:12:11.157Z,11.89
2023-04-09T08:14:39.086Z,11.57
2023-04-09T08:17:07.082Z,11.63
2023-04-09T08:19:35.104Z,11.46
2023-04-09T08:22:04.431Z,11.38
2023-04-09T08:24:32.513Z,11.48
2023-04-09T08:27:02.329Z,11.24
2023-04-09T08:29:32.376Z,11.47
2023-04-09T08:32:00.414Z,11.58
2023-04-09T08:34:28.728Z,11.84
2023-04-09T08:36:56.981Z,12.04
2023-04-09T08:39:26.391Z,12.08
2023-04-09T08:41:57.140Z,12.23
2023-04-09T08:44:27.998Z,12.30
2023-04-09T08:46:59.567Z,12.31
2023-04-09T08:49:27.601Z,12.27
2023-04-09T08:51:59.414Z,12.39
2023-04-09T08:54:29.268Z,12.35
2023-04-09T08:56:58.963Z,12.18
2023-04-09T08:59:27.468Z,12.25
2023-04-09T09:02:09.009Z,12.23
2023-04-09T09:04:48.538Z,11.97
2023-04-09T09:07:17.807Z,11.90
2023-04-09T09:09:56.220Z,12.03
2023-04-09T09:12:34.775Z,12.42
2023-04-09T09:15:03.155Z,12.46
2023-04-09T09:17:31.285Z,12.56
2023-04-09T09:19:59.623Z,12.36
2023-04-09T09:22:27.588Z,12.27
2023-04-09T09:24:58.474Z,12.44
2023-04-09T09:27:33.710Z,12.59
2023-04-09T09:30:03.469Z,12.44
2023-04-09T09:32:31.541Z,12.55
2023-04-09T09:35:02.549Z,12.65
2023-04-09T09:37:32.151Z,12.74
2023-04-09T09:40:02.049Z,13.03
2023-04-09T09:42:30.409Z,12.74
2023-04-09T09:44:59.885Z,12.22
2023-04-09T09:47:29.537Z,12.20
2023-04-09T09:49:57.573Z,12.26
2023-04-09T09:52:27.147Z,12.15
2023-04-09T09:54:56.832Z,12.12
2023-04-09T09:57:29.386Z,12.02
2023-04-09T10:00:02.606Z,12.05
2023-04-09T10:02:38.681Z,12.22
2023-04-09T10:05:09.483Z,12.41
2023-04-09T10:07:38.626Z,12.37
2023-04-09T10:10:08.600Z,12.58
2023-04-09T10:12:38.491Z,12.73
2023-04-09T10:15:07.315Z,12.92
2023-04-09T10:17:35.652Z,12.83
2023-04-09T10:20:17.153Z,12.88
2023-04-09T10:22:48.905Z,12.82
2023-04-09T10:25:17.724Z,12.96
2023-04-09T10:27:49.309Z,13.04
2023-04-09T10:30:35.439Z,13.25
2023-04-09T10:33:15.047Z,13.35
2023-04-09T10:35:47.930Z,13.50
2023-04-09T10:38:18.582Z,13.34
2023-04-09T10:40:51.025Z,13.20
2023-04-09T10:43:23.701Z,13.02
2023-04-09T10:45:55.279Z,13.28
2023-04-09T10:48:26.303Z,13.25
2023-04-09T10:50:54.595Z,13.04
2023-04-09T10:53:24.976Z,13.12
2023-04-09T10:55:54.979Z,13.31
2023-04-09T10:58:24.335Z,13.07
2023-04-09T11:00:52.969Z,13.07
2023-04-09T11:03:27.664Z,13.19
2023-04-09T11:06:03.860Z,13.13
2023-04-09T11:08:33.952Z,12.80
2023-04-09T11:11:03.635Z,12.98
2023-04-09T11:13:34.380Z,13.33
2023-04-09T11:16:04.225Z,13.50
2023-04-09T11:18:34.737Z,13.59
2023-04-09T11:21:04.806Z,13.68
2023-04-09T11:23:33.323Z,13.71
2023-04-09T11:26:02.182Z,13.87
2023-04-09T11:28:30.323Z,14.11
2023-04-09T11:30:59.794Z,14.48
2023-04-09T11:33:34.559Z,14.54
2023-04-09T11:36:05.793Z,15.10
2023-04-09T11:38:34.431Z,14.78
2023-04-09T11:41:03.367Z,14.90
2023-04-09T11:43:32.399Z,14.97
2023-04-09T11:46:02.332Z,14.38
2023-04-09T11:48:31.940Z,14.80
2023-04-09T11:51:00.314Z,15.09
2023-04-09T11:53:35.286Z,14.85
2023-04-09T11:56:03.421Z,14.86
2023-04-09T11:58:32.296Z,14.72
2023-04-09T12:01:01.752Z,14.52
2023-04-09T12:03:33.873Z,14.19
2023-04-09T12:06:04.027Z,13.74
2023-04-09T12:08:34.739Z,13.54
2023-04-09T12:11:10.575Z,13.64
2023-04-09T12:13:43.081Z,13.49
2023-04-09T12:16:13.195Z,13.47
2023-04-09T12:18:41.917Z,13.42
2023-04-09T12:21:10.297Z,13.51
2023-04-09T12:23:38.422Z,13.82
2023-04-09T12:26:06.511Z,14.09
2023-04-09T12:28:34.605Z,13.90
2023-04-09T12:31:03.620Z,13.84
2023-04-09T12:33:34.106Z,13.53
2023-04-09T12:36:03.441Z,13.48
2023-04-09T12:38:32.255Z,13.86
2023-04-09T12:41:01.416Z,14.07
2023-04-09T12:43:29.641Z,14.17
2023-04-09T12:45:58.072Z,14.25
2023-04-09T12:48:26.558Z,14.38
2023-04-09T12:50:55.969Z,14.38
2023-04-09T12:53:23.978Z,14.40
2023-04-09T12:55:51.976Z,14.45
2023-04-09T12:58:19.887Z,14.54
2023-04-09T13:00:47.759Z,14.61
2023-04-09T13:03:16.844Z,14.55
2023-04-09T13:05:45.250Z,14.48
2023-04-09T13:08:14.544Z,14.49
2023-04-09T13:10:42.589Z,14.58
2023-04-09T13:13:13.001Z,14.68
2023-04-09T13:15:43.336Z,14.90
2023-04-09T13:18:11.404Z,14.85
2023-04-09T13:20:39.447Z,14.80
2023-04-09T13:23:07.666Z,14.88
2023-04-09T13:25:37.161Z,14.87
2023-04-09T13:28:05.245Z,15.02
2023-04-09T13:30:33.435Z,15.20
2023-04-09T13:33:01.530Z,15.15
2023-04-09T13:35:29.624Z,15.01
2023-04-09T13:37:58.845Z,15.20
2023-04-09T13:40:26.845Z,15.33
2023-04-09T13:42:56.173Z,15.25
2023-04-09T13:45:24.552Z,15.05
2023-04-09T13:47:52.639Z,14.98
2023-04-09T13:50:21.662Z,14.94
2023-04-09T13:52:49.668Z,15.17
2023-04-09T13:55:17.653Z,15.13
2023-04-09T13:57:45.880Z,15.05
2023-04-09T14:00:15.812Z,15.06
2023-04-09T14:02:44.018Z,15.26
2023-04-09T14:05:12.591Z,15.37
2023-04-09T14:07:40.577Z,15.51
2023-04-09T14:10:09.675Z,15.45
2023-04-09T14:12:37.652Z,15.43
2023-04-09T14:15:06.485Z,15.53
2023-04-09T14:17:35.764Z,15.49
2023-04-09T14:20:04.700Z,15.46
2023-04-09T14:22:32.676Z,15.33
2023-04-09T14:25:00.776Z,15.42
2023-04-09T14:27:28.791Z,15.44
2023-04-09T14:29:56.834Z,15.39
2023-04-09T14:32:24.824Z,15.40
2023-04-09T14:34:54.190Z,15.43
2023-04-09T14:37:22.466Z,15.48
2023-04-09T14:39:50.502Z,15.43
2023-04-09T14:42:19.099Z,15.53
2023-04-09T14:44:47.161Z,15.49
2023-04-09T14:47:15.121Z,15.37
2023-04-09T14:49:43.128Z,15.33
2023-04-09T14:52:12.524Z,15.42
2023-04-09T14:54:40.699Z,15.38
2023-04-09T14:57:08.617Z,15.32
2023-04-09T14:59:38.313Z,15.47
2023-04-09T15:02:06.732Z,15.30
2023-04-09T15:04:35.026Z,15.49
2023-04-09T15:07:03.240Z,15.46
2023-04-09T15:09:32.822Z,15.23
2023-04-09T15:12:01.506Z,14.89
2023-04-09T15:14:30.646Z,14.86
2023-04-09T15:16:58.561Z,14.85
2023-04-09T15:19:26.693Z,14.82
2023-04-09T15:21:54.608Z,14.78
2023-04-09T15:24:22.788Z,14.83
2023-04-09T15:26:52.165Z,14.97
2023-04-09T15:29:20.102Z,15.00
2023-04-09T15:31:49.089Z,15.15
2023-04-09T15:34:17.220Z,15.23
2023-04-09T15:36:46.291Z,15.20
2023-04-09T15:39:14.306Z,15.22
2023-04-09T15:41:42.332Z,15.04
2023-04-09T15:44:12.268Z,15.11
2023-04-09T15:46:40.260Z,15.08
2023-04-09T15:49:08.851Z,15.09
2023-04-09T15:51:36.882Z,15.20
2023-04-09T15:54:05.590Z,15.38
2023-04-09T15:56:35.988Z,15.38
2023-04-09T15:59:05.475Z,15.44
2023-04-09T16:01:35.243Z,15.49
2023-04-09T16:04:04.791Z,15.44
2023-04-09T16:06:33.178Z,15.38
2023-04-09T16:09:01.133Z,15.34
2023-04-09T16:11:29.196Z,15.26
2023-04-09T16:13:59.330Z,15.28
2023-04-09T16:16:27.546Z,15.15
2023-04-09T16:18:57.564Z,15.17
2023-04-09T16:21:25.910Z,14.93
2023-04-09T16:23:53.836Z,15.01
2023-04-09T16:26:21.883Z,14.78
2023-04-09T16:28:50.280Z,15.01
2023-04-09T16:31:18.604Z,15.04
2023-04-09T16:33:46.658Z,14.88
2023-04-09T16:36:16.549Z,14.66
2023-04-09T16:38:44.576Z,14.56
2023-04-09T16:41:12.493Z,14.57
2023-04-09T16:43:40.414Z,14.57
2023-04-09T16:46:08.433Z,14.49
2023-04-09T16:48:41.571Z,14.46
2023-04-09T16:51:09.636Z,14.47
2023-04-09T16:53:40.112Z,14.51
2023-04-09T16:56:09.336Z,14.43
2023-04-09T16:58:37.853Z,14.16
2023-04-09T17:01:06.620Z,14.22
2023-04-09T17:03:34.878Z,14.21
2023-04-09T17:06:04.455Z,14.15
2023-04-09T17:08:32.414Z,14.09
2023-04-09T17:11:03.211Z,14.19
2023-04-09T17:13:35.143Z,14.03
2023-04-09T17:16:03.751Z,14.00
2023-04-09T17:18:31.790Z,13.90
2023-04-09T17:21:00.021Z,13.87
2023-04-09T17:23:30.407Z,13.83
2023-04-09T17:25:58.285Z,13.72
2023-04-09T17:28:29.782Z,13.76
2023-04-09T17:30:57.854Z,13.82
2023-04-09T17:33:26.136Z,13.72
2023-04-09T17:35:54.080Z,13.67
2023-04-09T17:38:24.902Z,13.57
2023-04-09T17:40:54.611Z,13.66
2023-04-09T17:43:22.805Z,13.61
2023-04-09T17:45:52.342Z,13.61
2023-04-09T17:48:20.217Z,13.52
2023-04-09T17:50:48.568Z,13.53
2023-04-09T17:53:16.635Z,13.51
2023-04-09T17:55:48.646Z,13.42
2023-04-09T17:58:16.841Z,13.37
2023-04-09T18:00:44.709Z,13.26
2023-04-09T18:03:14.594Z,13.26
2023-04-09T18:05:43.215Z,13.16
2023-04-09T18:08:11.485Z,13.17
2023-04-09T18:10:39.374Z,12.98
2023-04-09T18:13:07.394Z,13.05
2023-04-09T18:15:35.537Z,13.03
2023-04-09T18:18:03.548Z,12.92
2023-04-09T18:20:33.184Z,12.78
2023-04-09T18:23:01.085Z,12.73
2023-04-09T18:25:29.389Z,12.67
2023-04-09T18:27:58.004Z,12.73
2023-04-09T18:30:26.383Z,12.66
2023-04-09T18:32:54.351Z,12.63
2023-04-09T18:35:22.694Z,12.65
2023-04-09T18:37:51.971Z,12.59
2023-04-09T18:40:20.308Z,12.61
2023-04-09T18:42:51.776Z,12.55
2023-04-09T18:45:21.192Z,12.61
2023-04-09T18:47:49.265Z,12.52
2023-04-09T18:50:18.733Z,12.46
2023-04-09T18:52:46.642Z,12.31
2023-04-09T18:55:16.832Z,12.38
2023-04-09T18:57:45.281Z,12.25
2023-04-09T19:00:14.091Z,12.25
2023-04-09T19:02:42.856Z,12.20
2023-04-09T19:05:11.368Z,12.23
2023-04-09T19:07:39.511Z,12.19
2023-04-09T19:10:08.284Z,12.04
2023-04-09T19:12:38.458Z,12.05
2023-04-09T19:15:07.046Z,11.98
2023-04-09T19:17:34.971Z,11.88
2023-04-09T19:20:03.083Z,11.88
2023-04-09T19:22:31.152Z,11.89
2023-04-09T19:24:59.493Z,11.92
2023-04-09T19:27:28.217Z,11.91
2023-04-09T19:29:59.948Z,11.92
2023-04-09T19:32:28.797Z,11.71
2023-04-09T19:34:56.827Z,11.71
2023-04-09T19:37:28.313Z,11.72
2023-04-09T19:39:56.410Z,11.73
2023-04-09T19:42:24.678Z,11.71
2023-04-09T19:44:52.613Z,11.54
2023-04-09T19:47:22.265Z,11.63
2023-04-09T19:49:51.326Z,11.67
2023-04-09T19:52:19.862Z,11.56
2023-04-09T19:54:47.931Z,11.49
2023-04-09T19:57:16.560Z,11.35
2023-04-09T19:59:44.438Z,11.34
2023-04-09T20:02:12.696Z,11.37
2023-04-09T20:04:42.089Z,11.24
2023-04-09T20:07:10.127Z,11.10
2023-04-09T20:09:41.472Z,11.17
2023-04-09T20:12:09.914Z,11.23
2023-04-09T20:14:39.441Z,11.08
2023-04-09T20:17:09.040Z,11.15
2023-04-09T20:19:38.021Z,11.05
2023-04-09T20:22:07.614Z,11.05
2023-04-09T20:24:35.665Z,11.05
2023-04-09T20:27:03.916Z,11.02
2023-04-09T20:29:32.020Z,10.92
2023-04-09T20:32:00.219Z,10.89
2023-04-09T20:34:31.771Z,10.90
2023-04-09T20:37:00.436Z,10.86
2023-04-09T20:39:32.742Z,10.93
2023-04-09T20:42:00.675Z,10.73
2023-04-09T20:44:32.271Z,10.75
2023-04-09T20:47:00.239Z,10.69
2023-04-09T20:49:29.518Z,10.72
2023-04-09T20:51:57.414Z,10.63
2023-04-09T20:54:25.368Z,10.55
2023-04-09T20:56:55.183Z,10.61
2023-04-09T20:59:24.953Z,10.55
2023-04-09T21:01:53.955Z,10.51
2023-04-09T21:04:22.252Z,10.52
2023-04-09T21:06:50.518Z,10.43
2023-04-09T21:09:18.449Z,10.49
2023-04-09T21:11:46.376Z,10.42
2023-04-09T21:14:15.940Z,10.35
2023-04-09T21:16:44.038Z,10.33
2023-04-09T21:19:11.988Z,10.32
2023-04-09T21:21:39.985Z,10.38
2023-04-09T21:24:08.042Z,10.36
2023-04-09T21:26:49.510Z,10.35
2023-04-09T21:29:21.612Z,10.24
2023-04-09T21:31:50.211Z,10.24
2023-04-09T21:34:18.133Z,10.22
2023-04-09T21:36:46.473Z,10.15
2023-04-09T21:39:14.571Z,10.10
2023-04-09T21:41:42.546Z,10.12
2023-04-09T21:44:11.256Z,10.17
2023-04-09T21:46:41.826Z,10.14
2023-04-09T21:49:09.904Z,10.09
2023-04-09T21:51:37.911Z,10.07
2023-04-09T21:54:06.420Z,9.98
2023-04-09T21:56:35.536Z,10.04
2023-04-09T21:59:03.673Z,10.02
2023-04-09T22:01:34.807Z,9.99
2023-04-09T22:04:04.745Z,9.98
2023-04-09T22:06:33.003Z,9.88
2023-04-09T22:09:01.847Z,9.92
2023-04-09T22:11:31.084Z,9.84
2023-04-09T22:13:59.050Z,9.80
2023-04-09T22:16:28.144Z,9.74
2023-04-09T22:18:56.840Z,9.75
2023-04-09T22:21:26.834Z,9.73
2023-04-09T22:23:54.729Z,9.74
2023-04-09T22:26:22.792Z,9.68
2023-04-09T22:28:51.804Z,9.73
2023-04-09T22:31:21.128Z,9.69
2023-04-09T22:33:49.255Z,9.60
2023-04-09T22:36:17.168Z,9.58
2023-04-09T22:38:46.508Z,9.52
2023-04-09T22:41:16.059Z,9.43
2023-04-09T22:43:43.959Z,9.50
2023-04-09T22:46:11.951Z,9.53
2023-04-09T22:48:44.525Z,9.37
2023-04-09T22:51:13.018Z,9.41
2023-04-09T22:53:41.492Z,9.39
2023-04-09T22:56:11.148Z,9.39
2023-04-09T22:58:39.343Z,9.29
2023-04-09T23:01:07.912Z,9.40
2023-04-09T23:03:36.041Z,9.42
2023-04-09T23:06:04.216Z,9.39
2023-04-09T23:08:32.589Z,9.43
2023-04-09T23:11:01.193Z,9.40
2023-04-09T23:13:30.592Z,9.42
2023-04-09T23:15:58.575Z,9.37
2023-04-09T23:18:26.660Z,9.38
2023-04-09T23:20:54.829Z,9.36
2023-04-09T23:23:24.916Z,9.38
2023-04-09T23:25:53.172Z,9.39
2023-04-09T23:28:21.176Z,9.43
2023-04-09T23:30:51.431Z,9.46
2023-04-09T23:33:19.569Z,9.46
2023-04-09T23:35:48.924Z,9.48
2023-04-09T23:38:26.267Z,9.50
2023-04-09T23:41:00.484Z,9.46
2023-04-09T23:43:28.765Z,9.47
2023-04-09T23:45:58.263Z,9.47
2023-04-09T23:48:26.521Z,9.50
2023-04-09T23:50:55.873Z,9.52
2023-04-09T23:53:24.289Z,9.49
2023-04-09T23:55:52.760Z,9.52
2023-04-09T23:58:21.519Z,9.47
